createdAt,value
2023-10-17T00:00:25.886Z,10.200000
2023-10-17T00:05:28.196Z,10.000000
2023-10-17T00:10:30.483Z,9.200000
2023-10-17T00:15:32.535Z,9.000000
2023-10-17T00:20:34.948Z,9.000000
2023-10-17T00:25:17.071Z,9.000000
2023-10-17T00:30:19.593Z,9.866667
2023-10-17T00:35:21.759Z,10.000000
2023-10-17T00:40:24.018Z,9.142857
2023-10-17T00:45:26.231Z,9.000000
2023-10-17T00:50:28.797Z,8.200000
2023-10-17T00:55:31.326Z,8.000000
2023-10-17T01:00:33.619Z,7.133333
2023-10-17T01:05:36.018Z,7.000000
2023-10-17T01:10:17.947Z,7.866667
2023-10-17T01:15:20.399Z,8.000000
2023-10-17T01:20:22.669Z,10.571429
2023-10-17T01:25:25.414Z,11.000000
2023-10-17T01:30:28.009Z,10.200000
2023-10-17T01:35:30.392Z,10.000000
2023-10-17T01:40:32.686Z,10.866667
2023-10-17T01:45:34.885Z,11.000000
2023-10-17T01:50:16.806Z,11.000000
2023-10-17T01:55:19.142Z,11.000000
2023-10-17T02:00:21.160Z,13.600000
2023-10-17T02:05:23.589Z,14.000000
2023-10-17T02:10:25.995Z,11.600000
2023-10-17T02:15:28.465Z,11.000000
2023-10-17T02:20:30.862Z,26.200000
2023-10-17T02:25:33.302Z,30.000000
2023-10-17T02:30:35.745Z,17.866667
2023-10-17T02:35:18.074Z,16.000000
2023-10-17T02:40:20.210Z,55.866667
2023-10-17T02:45:22.543Z,62.000000
2023-10-17T02:50:24.680Z,36.400000
2023-10-17T02:55:26.978Z,30.000000
2023-10-17T03:00:29.246Z,38.000000
2023-10-17T03:05:31.672Z,40.000000
2023-10-17T03:10:33.980Z,53.000000
2023-10-17T03:15:16.103Z,55.000000
2023-10-17T03:20:18.434Z,22.066667
2023-10-17T03:25:20.487Z,17.000000
2023-10-17T03:30:22.853Z,20.428571
2023-10-17T03:35:24.971Z,21.000000
2023-10-17T03:40:27.088Z,20.200000
2023-10-17T03:45:29.395Z,20.000000
2023-10-17T03:50:31.590Z,24.333333
2023-10-17T03:55:34.263Z,25.000000
2023-10-17T04:00:16.469Z,25.866667
2023-10-17T04:05:18.831Z,26.000000
2023-10-17T04:10:21.237Z,20.800000
2023-10-17T04:15:23.845Z,20.000000
2023-10-17T04:20:26.240Z,19.200000
2023-10-17T04:25:28.547Z,19.000000
2023-10-17T04:30:30.656Z,15.000000
2023-10-17T04:35:33.075Z,14.000000
2023-10-17T04:40:35.375Z,15.733333
2023-10-17T04:45:17.528Z,16.000000
2023-10-17T04:50:20.065Z,13.400000
2023-10-17T04:55:22.535Z,13.000000
2023-10-17T05:00:24.754Z,10.600000
2023-10-17T05:05:27.284Z,10.000000
2023-10-17T05:10:29.741Z,14.800000
2023-10-17T05:15:32.277Z,16.000000
2023-10-17T05:20:34.675Z,14.266667
2023-10-17T05:25:16.575Z,14.000000
2023-10-17T05:30:18.895Z,16.600000
2023-10-17T05:35:20.767Z,17.000000
2023-10-17T05:40:23.075Z,9.285714
2023-10-17T05:45:25.435Z,8.000000
2023-10-17T05:50:27.595Z,14.400000
2023-10-17T05:55:32.851Z,16.000000
2023-10-17T06:00:32.372Z,12.533333
2023-10-17T06:05:34.749Z,12.000000
2023-10-17T06:10:16.813Z,12.000000
2023-10-17T06:15:19.252Z,12.000000
2023-10-17T06:20:21.483Z,12.000000
2023-10-17T06:25:23.811Z,12.000000
2023-10-17T06:30:26.224Z,12.000000
2023-10-17T06:35:28.571Z,12.000000
2023-10-17T06:40:31.276Z,11.133333
2023-10-17T06:45:33.560Z,11.000000
2023-10-17T06:50:35.608Z,11.866667
2023-10-17T06:55:17.781Z,12.000000
2023-10-17T07:00:20.177Z,13.733333
2023-10-17T07:05:22.194Z,14.000000
2023-10-17T07:10:24.670Z,11.600000
2023-10-17T07:15:27.155Z,11.000000
2023-10-17T07:20:29.294Z,13.400000
2023-10-17T07:25:31.756Z,14.000000
2023-10-17T07:30:34.587Z,13.133333
2023-10-17T07:35:16.720Z,13.000000
2023-10-17T07:40:19.035Z,11.266667
2023-10-17T07:45:21.719Z,11.000000
2023-10-17T07:50:24.055Z,14.428571
2023-10-17T07:55:26.520Z,15.000000
2023-10-17T08:00:31.429Z,15.000000
2023-10-17T08:05:31.235Z,15.000000
2023-10-17T08:10:33.337Z,10.666667
2023-10-17T08:15:35.881Z,10.000000
2023-10-17T08:20:18.135Z,12.600000
2023-10-17T08:25:20.256Z,13.000000
2023-10-17T08:30:38.040Z,12.142857
2023-10-17T08:35:24.966Z,12.000000
2023-10-17T08:40:27.670Z,11.200000
2023-10-17T08:45:30.062Z,11.000000
2023-10-17T08:50:32.033Z,11.866667
2023-10-17T08:55:34.585Z,12.000000
2023-10-17T09:00:16.694Z,12.000000
2023-10-17T09:05:19.231Z,12.000000
2023-10-17T09:10:21.819Z,9.400000
2023-10-17T09:15:24.398Z,9.000000
2023-10-17T09:20:26.662Z,9.800000
2023-10-17T09:25:29.049Z,10.000000
2023-10-17T09:30:31.251Z,10.000000
2023-10-17T09:35:33.380Z,10.000000
2023-10-17T09:40:41.107Z,12.600000
2023-10-17T09:45:33.368Z,13.000000
2023-10-17T09:50:20.956Z,13.000000
2023-10-17T09:55:23.143Z,13.000000
2023-10-17T10:00:25.658Z,17.000000
2023-10-17T10:05:27.978Z,18.000000
2023-10-17T10:10:30.148Z,23.600000
2023-10-17T10:15:32.592Z,25.000000
2023-10-17T10:20:34.706Z,22.400000
2023-10-17T10:25:16.764Z,22.000000
2023-10-17T10:30:19.508Z,26.333333
2023-10-17T10:35:22.057Z,27.000000
2023-10-17T10:40:24.470Z,27.857143
2023-10-17T10:45:26.962Z,28.000000
2023-10-17T10:50:29.068Z,28.000000
2023-10-17T10:55:31.258Z,28.000000
2023-10-17T11:00:33.665Z,28.866667
2023-10-17T11:05:36.724Z,29.000000
2023-10-17T11:10:18.027Z,23.800000
2023-10-17T11:15:20.690Z,23.000000
2023-10-17T11:20:22.564Z,16.142857
2023-10-17T11:25:25.047Z,15.000000
2023-10-17T11:30:27.680Z,17.400000
2023-10-17T11:35:29.920Z,18.000000
2023-10-17T11:40:32.205Z,13.666667
2023-10-17T11:45:35.638Z,13.000000
2023-10-17T11:50:17.302Z,21.666667
2023-10-17T11:55:19.716Z,23.000000
2023-10-17T12:00:22.290Z,17.857143
2023-10-17T12:05:24.483Z,17.000000
2023-10-17T12:10:27.061Z,15.400000
2023-10-17T12:15:29.271Z,15.000000
2023-10-17T12:20:31.939Z,18.466667
2023-10-17T12:25:34.376Z,19.000000
2023-10-17T12:30:16.655Z,20.733333
2023-10-17T12:35:19.073Z,21.000000
2023-10-17T12:40:21.340Z,17.533333
2023-10-17T12:45:23.894Z,17.000000
2023-10-17T12:50:25.866Z,21.800000
2023-10-17T12:55:28.312Z,23.000000
2023-10-17T13:00:30.742Z,23.000000
2023-10-17T13:05:32.908Z,23.000000
2023-10-17T13:10:34.802Z,25.600000
2023-10-17T13:15:17.009Z,26.000000
2023-10-17T13:20:25.056Z,28.600000
2023-10-17T13:25:21.714Z,29.000000
2023-10-17T13:30:24.295Z,32.428571
2023-10-17T13:35:26.347Z,33.000000
2023-10-17T13:40:28.580Z,29.000000
2023-10-17T13:45:30.879Z,28.000000
2023-10-17T13:50:33.057Z,33.200000
2023-10-17T13:55:35.320Z,34.000000
2023-10-17T14:00:17.624Z,29.666667
2023-10-17T14:05:19.881Z,29.000000
2023-10-17T14:10:22.002Z,31.600000
2023-10-17T14:15:24.136Z,32.000000
2023-10-17T14:20:26.628Z,28.800000
2023-10-17T14:25:28.973Z,28.000000
2023-10-17T14:30:31.317Z,32.333333
2023-10-17T14:35:33.443Z,33.000000
2023-10-17T14:40:35.574Z,35.600000
2023-10-17T14:45:17.511Z,36.000000
2023-10-17T14:50:19.844Z,30.800000
2023-10-17T14:55:22.468Z,30.000000
2023-10-17T15:00:24.410Z,25.200000
2023-10-17T15:05:26.822Z,24.000000
2023-10-17T15:10:28.915Z,26.400000
2023-10-17T15:15:31.127Z,27.000000
2023-10-17T15:20:33.153Z,27.866667
2023-10-17T15:25:36.340Z,28.000000
2023-10-17T15:30:34.363Z,35.800000
2023-10-17T15:35:20.307Z,37.000000
2023-10-17T15:40:22.692Z,34.428571
2023-10-17T15:45:25.166Z,34.000000
2023-10-17T15:50:27.692Z,34.000000
2023-10-17T15:55:30.609Z,34.000000
2023-10-17T16:00:33.017Z,34.000000
2023-10-17T16:05:35.307Z,34.000000
2023-10-17T16:10:17.837Z,31.400000
2023-10-17T16:15:19.965Z,31.000000
2023-10-17T16:20:22.029Z,25.800000
2023-10-17T16:25:24.168Z,25.000000
2023-10-17T16:30:26.318Z,27.400000
2023-10-17T16:35:28.551Z,28.000000
2023-10-17T16:40:30.990Z,23.666667
2023-10-17T16:45:33.363Z,23.000000
2023-10-17T16:50:35.789Z,23.866667
2023-10-17T16:55:18.108Z,24.000000
2023-10-17T17:00:20.366Z,19.666667
2023-10-17T17:05:22.784Z,19.000000
2023-10-17T17:10:25.305Z,17.400000
2023-10-17T17:15:27.301Z,17.000000
2023-10-17T17:20:29.462Z,17.000000
2023-10-17T17:25:31.791Z,17.000000
2023-10-17T17:30:33.947Z,15.266667
2023-10-17T17:35:15.896Z,15.000000
2023-10-17T17:40:18.367Z,11.533333
2023-10-17T17:45:20.370Z,11.000000
2023-10-17T17:50:22.461Z,12.714286
2023-10-17T17:55:24.750Z,13.000000
2023-10-17T18:00:27.125Z,10.600000
2023-10-17T18:05:29.450Z,10.000000
2023-10-17T18:10:31.828Z,12.600000
2023-10-17T18:15:34.997Z,13.000000
2023-10-17T18:20:16.319Z,13.866667
2023-10-17T18:25:18.496Z,14.000000
2023-10-17T18:30:20.938Z,13.133333
2023-10-17T18:35:23.232Z,13.000000
2023-10-17T18:40:25.582Z,13.000000
2023-10-17T18:45:27.930Z,13.000000
2023-10-17T18:50:30.101Z,13.800000
2023-10-17T18:55:32.161Z,14.000000
2023-10-17T19:00:34.621Z,14.866667
2023-10-17T19:05:16.708Z,15.000000
2023-10-17T19:10:18.960Z,15.866667
2023-10-17T19:15:21.201Z,16.000000
2023-10-17T19:20:23.217Z,17.714286
2023-10-17T19:25:25.693Z,18.000000
2023-10-17T19:30:27.636Z,14.800000
2023-10-17T19:35:30.072Z,14.000000
2023-10-17T19:40:32.958Z,17.466667
2023-10-17T19:45:34.740Z,18.000000
2023-10-17T19:50:16.610Z,16.266667
2023-10-17T19:55:18.797Z,16.000000
2023-10-17T20:00:21.010Z,16.000000
2023-10-17T20:05:23.135Z,16.000000
2023-10-17T20:10:25.565Z,16.000000
2023-10-17T20:15:27.917Z,16.000000
2023-10-17T20:20:30.076Z,16.800000
2023-10-17T20:25:32.478Z,17.000000
2023-10-17T20:30:34.727Z,17.000000
2023-10-17T20:35:16.862Z,17.000000
2023-10-17T20:40:22.346Z,17.866667
2023-10-17T20:45:21.858Z,18.000000
2023-10-17T20:50:24.000Z,17.142857
2023-10-17T20:55:26.774Z,17.000000
2023-10-17T21:00:29.240Z,19.400000
2023-10-17T21:05:31.572Z,20.000000
2023-10-17T21:10:33.528Z,20.000000
2023-10-17T21:15:35.860Z,20.000000
2023-10-17T21:20:18.016Z,19.133333
2023-10-17T21:25:20.296Z,19.000000
2023-10-17T21:30:22.619Z,17.285714
2023-10-17T21:35:24.830Z,17.000000
2023-10-17T21:40:27.404Z,16.200000
2023-10-17T21:45:30.027Z,16.000000
2023-10-17T21:50:32.475Z,13.400000
2023-10-17T21:55:34.773Z,13.000000
2023-10-17T22:00:16.808Z,14.733333
2023-10-17T22:05:18.784Z,15.000000
2023-10-17T22:10:21.037Z,9.800000
2023-10-17T22:15:23.197Z,9.000000
2023-10-17T22:20:25.445Z,8.200000
2023-10-17T22:25:27.397Z,8.000000
2023-10-17T22:30:29.837Z,8.000000
2023-10-17T22:35:32.311Z,8.000000
2023-10-17T22:40:34.762Z,9.733333
2023-10-17T22:45:16.917Z,10.000000
2023-10-17T22:50:19.404Z,8.266667
2023-10-17T22:55:21.977Z,8.000000
2023-10-17T23:00:24.288Z,8.000000
2023-10-17T23:05:26.551Z,8.000000
2023-10-17T23:10:28.788Z,9.600000
2023-10-17T23:15:31.350Z,10.000000
2023-10-17T23:20:33.569Z,8.266667
2023-10-17T23:25:35.913Z,8.000000
2023-10-17T23:30:18.157Z,8.000000
2023-10-17T23:35:20.428Z,8.000000
2023-10-17T23:40:22.948Z,7.142857
2023-10-17T23:45:25.486Z,7.000000
2023-10-17T23:50:27.828Z,7.800000
2023-10-17T23:55:30.068Z,8.000000
